Terminal Aerodrome Forecast
Issued by NWS

Home | Current Version | Previous Version | Text Only | Print | Product List | Glossary On
Versions: 1 2 3 4 5 6 7 8 9 10 11 12 13
000
FTUS42 TJSJ 030500
TAFJBQ
TAF
TJBQ 030535Z 0306/0406 11004KT P6SM FEW050
     FM031330 06016G23KT P6SM SCT025
     FM031800 07010KT P6SM VCSH SCT025
     FM032300 09008KT P6SM SCT025
      AMD NOT SKED TIL 031100=

USA.gov is the U.S. government's official web portal to all federal, state and local government web resources and services.